sensor_id;sensor_type;location;lat;lon;timestamp;P1;durP1;ratioP1;P2;durP2;ratioP2
24787;SDS011;12883;52.662;5.196;2022-12-05T00:00:52;21.37;;;21.27;;
24787;SDS011;12883;52.662;5.196;2022-12-05T00:03:19;21.07;;;20.97;;
24787;SDS011;12883;52.662;5.196;2022-12-05T00:05:44;22.03;;;21.93;;
24787;SDS011;12883;52.662;5.196;2022-12-05T00:08:10;21.70;;;21.60;;
24787;SDS011;12883;52.662;5.196;2022-12-05T00:10:35;20.70;;;20.60;;
24787;SDS011;12883;52.662;5.196;2022-12-05T00:13:01;20.77;;;20.67;;
24787;SDS011;12883;52.662;5.196;2022-12-05T00:15:27;21.00;;;20.90;;
24787;SDS011;12883;52.662;5.196;2022-12-05T00:17:52;20.60;;;20.50;;
24787;SDS011;12883;52.662;5.196;2022-12-05T00:20:17;21.53;;;21.43;;
24787;SDS011;12883;52.662;5.196;2022-12-05T00:22:43;20.73;;;20.63;;
24787;SDS011;12883;52.662;5.196;2022-12-05T00:25:08;20.90;;;20.80;;
24787;SDS011;12883;52.662;5.196;2022-12-05T00:27:34;20.47;;;20.37;;
24787;SDS011;12883;52.662;5.196;2022-12-05T00:30:00;22.60;;;22.50;;
24787;SDS011;12883;52.662;5.196;2022-12-05T00:32:29;21.10;;;21.00;;
24787;SDS011;12883;52.662;5.196;2022-12-05T00:34:54;20.50;;;20.40;;
24787;SDS011;12883;52.662;5.196;2022-12-05T00:37:20;21.20;;;21.10;;
24787;SDS011;12883;52.662;5.196;2022-12-05T00:39:46;19.87;;;19.77;;
24787;SDS011;12883;52.662;5.196;2022-12-05T00:42:11;20.23;;;20.13;;
24787;SDS011;12883;52.662;5.196;2022-12-05T00:44:36;20.80;;;20.70;;
24787;SDS011;12883;52.662;5.196;2022-12-05T00:47:02;18.63;;;18.53;;
24787;SDS011;12883;52.662;5.196;2022-12-05T00:49:27;19.67;;;19.57;;
24787;SDS011;12883;52.662;5.196;2022-12-05T00:51:53;18.40;;;18.30;;
24787;SDS011;12883;52.662;5.196;2022-12-05T00:54:18;19.57;;;19.47;;
24787;SDS011;12883;52.662;5.196;2022-12-05T00:56:43;20.63;;;20.53;;
24787;SDS011;12883;52.662;5.196;2022-12-05T00:59:12;20.70;;;20.60;;
24787;SDS011;12883;52.662;5.196;2022-12-05T01:01:40;18.97;;;18.87;;
24787;SDS011;12883;52.662;5.196;2022-12-05T01:04:08;18.97;;;18.87;;
24787;SDS011;12883;52.662;5.196;2022-12-05T01:06:39;19.60;;;19.50;;
24787;SDS011;12883;52.662;5.196;2022-12-05T01:09:06;19.47;;;19.37;;
24787;SDS011;12883;52.662;5.196;2022-12-05T01:11:32;20.87;;;20.77;;
24787;SDS011;12883;52.662;5.196;2022-12-05T01:13:57;19.70;;;19.60;;
24787;SDS011;12883;52.662;5.196;2022-12-05T01:16:27;19.67;;;19.57;;
24787;SDS011;12883;52.662;5.196;2022-12-05T01:18:55;19.17;;;19.07;;
24787;SDS011;12883;52.662;5.196;2022-12-05T01:21:22;20.73;;;20.63;;
24787;SDS011;12883;52.662;5.196;2022-12-05T01:23:48;19.13;;;19.03;;
24787;SDS011;12883;52.662;5.196;2022-12-05T01:26:14;19.60;;;19.50;;
24787;SDS011;12883;52.662;5.196;2022-12-05T01:28:41;18.60;;;18.50;;
24787;SDS011;12883;52.662;5.196;2022-12-05T01:31:28;19.03;;;18.93;;
24787;SDS011;12883;52.662;5.196;2022-12-05T01:33:55;18.87;;;18.77;;
24787;SDS011;12883;52.662;5.196;2022-12-05T01:36:23;17.80;;;17.70;;
24787;SDS011;12883;52.662;5.196;2022-12-05T01:38:49;18.13;;;18.03;;
24787;SDS011;12883;52.662;5.196;2022-12-05T01:41:16;19.07;;;18.97;;
24787;SDS011;12883;52.662;5.196;2022-12-05T01:49:12;19.60;;;19.50;;
24787;SDS011;12883;52.662;5.196;2022-12-05T01:51:55;19.57;;;19.47;;
24787;SDS011;12883;52.662;5.196;2022-12-05T01:54:24;20.47;;;20.37;;
24787;SDS011;12883;52.662;5.196;2022-12-05T01:57:00;21.07;;;20.97;;
24787;SDS011;12883;52.662;5.196;2022-12-05T01:59:31;21.50;;;21.40;;
24787;SDS011;12883;52.662;5.196;2022-12-05T02:01:58;21.30;;;21.20;;
24787;SDS011;12883;52.662;5.196;2022-12-05T02:04:24;20.97;;;20.87;;
24787;SDS011;12883;52.662;5.196;2022-12-05T02:06:51;20.90;;;20.80;;
24787;SDS011;12883;52.662;5.196;2022-12-05T02:09:17;21.17;;;21.07;;
24787;SDS011;12883;52.662;5.196;2022-12-05T02:11:45;20.13;;;20.03;;
24787;SDS011;12883;52.662;5.196;2022-12-05T02:30:40;20.57;;;20.47;;
24787;SDS011;12883;52.662;5.196;2022-12-05T02:39:02;19.33;;;19.23;;
24787;SDS011;12883;52.662;5.196;2022-12-05T02:46:40;20.63;;;20.53;;
24787;SDS011;12883;52.662;5.196;2022-12-05T02:49:09;20.43;;;20.33;;
24787;SDS011;12883;52.662;5.196;2022-12-05T02:51:39;20.23;;;20.13;;
24787;SDS011;12883;52.662;5.196;2022-12-05T02:54:09;20.73;;;20.63;;
24787;SDS011;12883;52.662;5.196;2022-12-05T02:56:39;20.73;;;20.63;;
24787;SDS011;12883;52.662;5.196;2022-12-05T02:59:07;22.27;;;22.17;;
24787;SDS011;12883;52.662;5.196;2022-12-05T03:01:33;22.17;;;22.07;;
24787;SDS011;12883;52.662;5.196;2022-12-05T03:03:59;22.27;;;22.17;;
24787;SDS011;12883;52.662;5.196;2022-12-05T03:06:27;21.90;;;21.80;;
24787;SDS011;12883;52.662;5.196;2022-12-05T03:11:58;23.17;;;23.07;;
24787;SDS011;12883;52.662;5.196;2022-12-05T03:14:44;22.83;;;22.73;;
24787;SDS011;12883;52.662;5.196;2022-12-05T03:17:15;23.83;;;23.73;;
24787;SDS011;12883;52.662;5.196;2022-12-05T03:22:35;26.10;;;26.00;;
24787;SDS011;12883;52.662;5.196;2022-12-05T03:25:06;25.00;;;24.90;;
24787;SDS011;12883;52.662;5.196;2022-12-05T03:27:37;25.27;;;25.13;;
24787;SDS011;12883;52.662;5.196;2022-12-05T03:30:12;27.53;;;27.33;;
24787;SDS011;12883;52.662;5.196;2022-12-05T03:35:38;26.30;;;26.10;;
24787;SDS011;12883;52.662;5.196;2022-12-05T03:38:10;26.93;;;26.73;;
24787;SDS011;12883;52.662;5.196;2022-12-05T03:46:40;26.27;;;26.17;;
24787;SDS011;12883;52.662;5.196;2022-12-05T03:49:35;26.57;;;26.37;;
24787;SDS011;12883;52.662;5.196;2022-12-05T03:52:11;26.67;;;26.50;;
24787;SDS011;12883;52.662;5.196;2022-12-05T03:54:45;28.17;;;27.97;;
24787;SDS011;12883;52.662;5.196;2022-12-05T03:57:30;27.77;;;27.57;;
24787;SDS011;12883;52.662;5.196;2022-12-05T04:00:03;28.60;;;28.40;;
24787;SDS011;12883;52.662;5.196;2022-12-05T04:02:31;27.50;;;27.33;;
24787;SDS011;12883;52.662;5.196;2022-12-05T04:05:11;27.97;;;27.77;;
24787;SDS011;12883;52.662;5.196;2022-12-05T04:07:50;28.23;;;28.03;;
24787;SDS011;12883;52.662;5.196;2022-12-05T04:10:21;26.20;;;26.00;;
24787;SDS011;12883;52.662;5.196;2022-12-05T04:12:50;26.27;;;26.17;;
24787;SDS011;12883;52.662;5.196;2022-12-05T04:15:22;27.57;;;27.37;;
24787;SDS011;12883;52.662;5.196;2022-12-05T04:17:57;27.13;;;26.93;;
24787;SDS011;12883;52.662;5.196;2022-12-05T04:20:26;27.53;;;27.40;;
24787;SDS011;12883;52.662;5.196;2022-12-05T04:23:16;26.30;;;26.13;;
24787;SDS011;12883;52.662;5.196;2022-12-05T04:25:50;27.50;;;27.30;;
24787;SDS011;12883;52.662;5.196;2022-12-05T04:29:04;26.33;;;26.17;;
24787;SDS011;12883;52.662;5.196;2022-12-05T04:31:17;25.27;;;25.07;;
24787;SDS011;12883;52.662;5.196;2022-12-05T04:33:47;26.87;;;26.73;;
24787;SDS011;12883;52.662;5.196;2022-12-05T04:36:21;25.20;;;25.10;;
24787;SDS011;12883;52.662;5.196;2022-12-05T04:38:54;24.90;;;24.80;;
24787;SDS011;12883;52.662;5.196;2022-12-05T04:41:29;24.80;;;24.70;;
24787;SDS011;12883;52.662;5.196;2022-12-05T04:44:08;24.93;;;24.83;;
24787;SDS011;12883;52.662;5.196;2022-12-05T04:46:38;23.53;;;23.43;;
24787;SDS011;12883;52.662;5.196;2022-12-05T04:49:06;23.67;;;23.57;;
24787;SDS011;12883;52.662;5.196;2022-12-05T04:51:34;23.43;;;23.33;;
24787;SDS011;12883;52.662;5.196;2022-12-05T04:57:10;22.93;;;22.83;;
24787;SDS011;12883;52.662;5.196;2022-12-05T04:59:40;22.63;;;22.53;;
24787;SDS011;12883;52.662;5.196;2022-12-05T05:02:07;23.70;;;23.60;;
24787;SDS011;12883;52.662;5.196;2022-12-05T05:04:34;23.40;;;23.30;;
24787;SDS011;12883;52.662;5.196;2022-12-05T05:07:09;23.67;;;23.57;;
24787;SDS011;12883;52.662;5.196;2022-12-05T05:09:36;23.47;;;23.37;;
24787;SDS011;12883;52.662;5.196;2022-12-05T05:12:02;22.93;;;22.83;;
24787;SDS011;12883;52.662;5.196;2022-12-05T05:14:28;21.37;;;21.27;;
24787;SDS011;12883;52.662;5.196;2022-12-05T05:16:54;21.63;;;21.53;;
24787;SDS011;12883;52.662;5.196;2022-12-05T05:19:20;20.07;;;19.97;;
24787;SDS011;12883;52.662;5.196;2022-12-05T05:21:45;20.90;;;20.80;;
24787;SDS011;12883;52.662;5.196;2022-12-05T05:24:12;18.73;;;18.63;;
24787;SDS011;12883;52.662;5.196;2022-12-05T05:26:40;18.77;;;18.67;;
24787;SDS011;12883;52.662;5.196;2022-12-05T05:29:07;17.73;;;17.63;;
24787;SDS011;12883;52.662;5.196;2022-12-05T05:31:34;17.67;;;17.57;;
24787;SDS011;12883;52.662;5.196;2022-12-05T05:34:00;18.37;;;18.27;;
24787;SDS011;12883;52.662;5.196;2022-12-05T05:36:26;15.63;;;15.63;;
24787;SDS011;12883;52.662;5.196;2022-12-05T05:38:56;15.50;;;15.43;;
24787;SDS011;12883;52.662;5.196;2022-12-05T05:41:30;15.20;;;15.20;;
24787;SDS011;12883;52.662;5.196;2022-12-05T05:43:57;15.43;;;15.33;;
24787;SDS011;12883;52.662;5.196;2022-12-05T05:46:24;14.83;;;14.83;;
24787;SDS011;12883;52.662;5.196;2022-12-05T05:48:52;14.83;;;14.83;;
24787;SDS011;12883;52.662;5.196;2022-12-05T05:51:17;15.27;;;15.27;;
24787;SDS011;12883;52.662;5.196;2022-12-05T05:53:44;14.83;;;14.83;;
24787;SDS011;12883;52.662;5.196;2022-12-05T05:56:11;13.03;;;13.03;;
24787;SDS011;12883;52.662;5.196;2022-12-05T05:58:38;13.47;;;13.47;;
24787;SDS011;12883;52.662;5.196;2022-12-05T06:01:08;13.57;;;13.57;;
24787;SDS011;12883;52.662;5.196;2022-12-05T06:03:36;13.90;;;13.90;;
24787;SDS011;12883;52.662;5.196;2022-12-05T06:06:04;13.17;;;13.17;;
24787;SDS011;12883;52.662;5.196;2022-12-05T06:08:32;13.47;;;13.47;;
24787;SDS011;12883;52.662;5.196;2022-12-05T06:10:59;12.33;;;12.33;;
24787;SDS011;12883;52.662;5.196;2022-12-05T06:13:29;12.40;;;12.40;;
24787;SDS011;12883;52.662;5.196;2022-12-05T06:15:55;12.57;;;12.57;;
24787;SDS011;12883;52.662;5.196;2022-12-05T06:18:20;12.57;;;12.57;;
24787;SDS011;12883;52.662;5.196;2022-12-05T06:20:56;11.90;;;11.90;;
24787;SDS011;12883;52.662;5.196;2022-12-05T06:23:22;12.33;;;12.33;;
24787;SDS011;12883;52.662;5.196;2022-12-05T06:25:52;12.07;;;12.07;;
24787;SDS011;12883;52.662;5.196;2022-12-05T06:28:19;12.67;;;12.67;;
24787;SDS011;12883;52.662;5.196;2022-12-05T06:30:45;11.87;;;11.87;;
24787;SDS011;12883;52.662;5.196;2022-12-05T06:33:11;11.27;;;11.27;;
24787;SDS011;12883;52.662;5.196;2022-12-05T06:35:37;12.43;;;12.43;;
24787;SDS011;12883;52.662;5.196;2022-12-05T06:38:02;12.37;;;12.37;;
24787;SDS011;12883;52.662;5.196;2022-12-05T06:40:28;11.50;;;11.50;;
24787;SDS011;12883;52.662;5.196;2022-12-05T06:42:53;11.60;;;11.60;;
24787;SDS011;12883;52.662;5.196;2022-12-05T06:45:19;11.73;;;11.73;;
24787;SDS011;12883;52.662;5.196;2022-12-05T06:47:44;11.20;;;11.20;;
24787;SDS011;12883;52.662;5.196;2022-12-05T06:50:10;11.47;;;11.47;;
24787;SDS011;12883;52.662;5.196;2022-12-05T06:52:35;12.37;;;12.37;;
24787;SDS011;12883;52.662;5.196;2022-12-05T06:55:01;11.97;;;11.97;;
24787;SDS011;12883;52.662;5.196;2022-12-05T06:57:27;12.40;;;12.40;;
24787;SDS011;12883;52.662;5.196;2022-12-05T06:59:52;11.13;;;11.13;;
24787;SDS011;12883;52.662;5.196;2022-12-05T07:02:38;12.10;;;12.10;;
24787;SDS011;12883;52.662;5.196;2022-12-05T07:05:05;11.00;;;11.00;;
24787;SDS011;12883;52.662;5.196;2022-12-05T07:07:34;12.33;;;12.33;;
24787;SDS011;12883;52.662;5.196;2022-12-05T07:10:00;11.93;;;11.93;;
24787;SDS011;12883;52.662;5.196;2022-12-05T07:12:26;12.00;;;12.00;;
24787;SDS011;12883;52.662;5.196;2022-12-05T07:14:51;11.50;;;11.50;;
24787;SDS011;12883;52.662;5.196;2022-12-05T07:17:17;11.63;;;11.63;;
24787;SDS011;12883;52.662;5.196;2022-12-05T07:19:45;12.20;;;12.20;;
24787;SDS011;12883;52.662;5.196;2022-12-05T07:22:13;12.07;;;12.07;;
24787;SDS011;12883;52.662;5.196;2022-12-05T07:24:38;11.43;;;11.43;;
24787;SDS011;12883;52.662;5.196;2022-12-05T07:27:04;11.70;;;11.70;;
24787;SDS011;12883;52.662;5.196;2022-12-05T07:29:30;12.03;;;12.03;;
24787;SDS011;12883;52.662;5.196;2022-12-05T07:31:55;12.23;;;12.23;;
24787;SDS011;12883;52.662;5.196;2022-12-05T07:34:21;12.87;;;12.87;;
24787;SDS011;12883;52.662;5.196;2022-12-05T07:36:46;12.13;;;12.07;;
24787;SDS011;12883;52.662;5.196;2022-12-05T07:39:11;12.57;;;12.57;;
24787;SDS011;12883;52.662;5.196;2022-12-05T07:41:36;11.67;;;11.67;;
24787;SDS011;12883;52.662;5.196;2022-12-05T07:44:02;11.33;;;11.33;;
24787;SDS011;12883;52.662;5.196;2022-12-05T07:46:27;11.67;;;11.67;;
24787;SDS011;12883;52.662;5.196;2022-12-05T07:48:53;12.10;;;12.10;;
24787;SDS011;12883;52.662;5.196;2022-12-05T07:51:19;12.00;;;12.00;;
24787;SDS011;12883;52.662;5.196;2022-12-05T07:53:45;12.20;;;12.20;;
24787;SDS011;12883;52.662;5.196;2022-12-05T07:56:12;12.23;;;12.23;;
24787;SDS011;12883;52.662;5.196;2022-12-05T07:58:41;11.63;;;11.63;;
24787;SDS011;12883;52.662;5.196;2022-12-05T08:01:11;12.40;;;12.40;;
24787;SDS011;12883;52.662;5.196;2022-12-05T08:03:39;11.90;;;11.90;;
24787;SDS011;12883;52.662;5.196;2022-12-05T08:06:06;12.73;;;12.73;;
24787;SDS011;12883;52.662;5.196;2022-12-05T08:08:35;11.87;;;11.87;;
24787;SDS011;12883;52.662;5.196;2022-12-05T08:11:04;11.67;;;11.67;;
24787;SDS011;12883;52.662;5.196;2022-12-05T08:13:32;11.37;;;11.37;;
24787;SDS011;12883;52.662;5.196;2022-12-05T08:16:05;12.17;;;12.17;;
24787;SDS011;12883;52.662;5.196;2022-12-05T08:18:32;11.80;;;11.80;;
24787;SDS011;12883;52.662;5.196;2022-12-05T08:21:01;11.93;;;11.93;;
24787;SDS011;12883;52.662;5.196;2022-12-05T08:23:28;11.57;;;11.57;;
24787;SDS011;12883;52.662;5.196;2022-12-05T08:25:54;11.40;;;11.40;;
24787;SDS011;12883;52.662;5.196;2022-12-05T08:28:20;11.80;;;11.80;;
24787;SDS011;12883;52.662;5.196;2022-12-05T08:30:45;10.87;;;10.87;;
24787;SDS011;12883;52.662;5.196;2022-12-05T08:33:10;10.63;;;10.63;;
24787;SDS011;12883;52.662;5.196;2022-12-05T08:35:36;10.27;;;10.27;;
24787;SDS011;12883;52.662;5.196;2022-12-05T08:38:02;11.10;;;11.10;;
24787;SDS011;12883;52.662;5.196;2022-12-05T08:40:27;10.77;;;10.77;;
24787;SDS011;12883;52.662;5.196;2022-12-05T08:42:53;11.57;;;11.57;;
24787;SDS011;12883;52.662;5.196;2022-12-05T08:45:18;10.30;;;10.30;;
24787;SDS011;12883;52.662;5.196;2022-12-05T08:47:43;9.83;;;9.83;;
24787;SDS011;12883;52.662;5.196;2022-12-05T08:50:09;10.97;;;10.97;;
24787;SDS011;12883;52.662;5.196;2022-12-05T08:52:34;10.13;;;10.13;;
24787;SDS011;12883;52.662;5.196;2022-12-05T08:54:59;11.20;;;11.20;;
24787;SDS011;12883;52.662;5.196;2022-12-05T08:57:25;10.20;;;10.20;;
24787;SDS011;12883;52.662;5.196;2022-12-05T08:59:50;10.30;;;10.30;;
24787;SDS011;12883;52.662;5.196;2022-12-05T09:02:15;11.60;;;11.60;;
24787;SDS011;12883;52.662;5.196;2022-12-05T09:04:41;10.23;;;10.23;;
24787;SDS011;12883;52.662;5.196;2022-12-05T09:07:06;10.07;;;10.07;;
24787;SDS011;12883;52.662;5.196;2022-12-05T09:09:32;11.13;;;11.13;;
24787;SDS011;12883;52.662;5.196;2022-12-05T09:11:58;10.33;;;10.33;;
24787;SDS011;12883;52.662;5.196;2022-12-05T09:14:24;10.43;;;10.43;;
24787;SDS011;12883;52.662;5.196;2022-12-05T09:16:56;9.17;;;9.17;;
24787;SDS011;12883;52.662;5.196;2022-12-05T09:19:22;11.17;;;11.17;;
24787;SDS011;12883;52.662;5.196;2022-12-05T09:21:49;10.47;;;10.47;;
24787;SDS011;12883;52.662;5.196;2022-12-05T09:24:15;11.13;;;11.13;;
24787;SDS011;12883;52.662;5.196;2022-12-05T09:26:41;10.77;;;10.77;;
24787;SDS011;12883;52.662;5.196;2022-12-05T09:29:06;10.83;;;10.83;;
24787;SDS011;12883;52.662;5.196;2022-12-05T09:31:32;10.87;;;10.87;;
24787;SDS011;12883;52.662;5.196;2022-12-05T09:33:57;10.33;;;10.33;;
24787;SDS011;12883;52.662;5.196;2022-12-05T09:36:24;10.10;;;10.10;;
24787;SDS011;12883;52.662;5.196;2022-12-05T09:38:51;11.50;;;11.50;;
24787;SDS011;12883;52.662;5.196;2022-12-05T09:49:56;10.47;;;10.47;;
24787;SDS011;12883;52.662;5.196;2022-12-05T09:52:27;10.40;;;10.40;;
24787;SDS011;12883;52.662;5.196;2022-12-05T09:54:56;9.30;;;9.30;;
24787;SDS011;12883;52.662;5.196;2022-12-05T09:57:37;9.60;;;9.60;;
24787;SDS011;12883;52.662;5.196;2022-12-05T10:00:08;9.97;;;9.97;;
24787;SDS011;12883;52.662;5.196;2022-12-05T10:02:37;9.27;;;9.27;;
24787;SDS011;12883;52.662;5.196;2022-12-05T10:05:16;9.27;;;9.27;;
24787;SDS011;12883;52.662;5.196;2022-12-05T10:08:32;9.27;;;9.23;;
24787;SDS011;12883;52.662;5.196;2022-12-05T10:10:56;9.40;;;9.40;;
24787;SDS011;12883;52.662;5.196;2022-12-05T10:16:04;8.93;;;8.93;;
24787;SDS011;12883;52.662;5.196;2022-12-05T10:24:13;9.47;;;9.47;;
24787;SDS011;12883;52.662;5.196;2022-12-05T10:29:22;9.87;;;9.87;;
24787;SDS011;12883;52.662;5.196;2022-12-05T10:31:53;10.50;;;10.50;;
24787;SDS011;12883;52.662;5.196;2022-12-05T10:34:30;9.50;;;9.50;;
24787;SDS011;12883;52.662;5.196;2022-12-05T10:37:17;10.40;;;10.40;;
24787;SDS011;12883;52.662;5.196;2022-12-05T10:39:45;9.47;;;9.47;;
24787;SDS011;12883;52.662;5.196;2022-12-05T10:42:31;10.10;;;10.10;;
24787;SDS011;12883;52.662;5.196;2022-12-05T10:45:03;10.60;;;10.60;;
24787;SDS011;12883;52.662;5.196;2022-12-05T10:47:31;10.80;;;10.80;;
24787;SDS011;12883;52.662;5.196;2022-12-05T10:49:58;10.07;;;10.07;;
24787;SDS011;12883;52.662;5.196;2022-12-05T10:52:29;10.00;;;10.00;;
24787;SDS011;12883;52.662;5.196;2022-12-05T10:55:00;9.47;;;9.40;;
24787;SDS011;12883;52.662;5.196;2022-12-05T10:57:28;10.47;;;10.47;;
24787;SDS011;12883;52.662;5.196;2022-12-05T10:59:55;9.60;;;9.60;;
24787;SDS011;12883;52.662;5.196;2022-12-05T11:02:25;9.87;;;9.87;;
24787;SDS011;12883;52.662;5.196;2022-12-05T11:04:52;11.23;;;11.23;;
24787;SDS011;12883;52.662;5.196;2022-12-05T11:07:26;10.80;;;10.70;;
24787;SDS011;12883;52.662;5.196;2022-12-05T11:09:59;10.07;;;10.07;;
24787;SDS011;12883;52.662;5.196;2022-12-05T11:12:36;10.97;;;10.90;;
24787;SDS011;12883;52.662;5.196;2022-12-05T11:17:46;10.20;;;10.20;;
24787;SDS011;12883;52.662;5.196;2022-12-05T11:22:48;11.37;;;11.27;;
24787;SDS011;12883;52.662;5.196;2022-12-05T11:25:25;11.07;;;10.97;;
24787;SDS011;12883;52.662;5.196;2022-12-05T11:27:58;10.27;;;10.27;;
24787;SDS011;12883;52.662;5.196;2022-12-05T11:30:26;10.37;;;10.37;;
24787;SDS011;12883;52.662;5.196;2022-12-05T11:33:17;10.77;;;10.77;;
24787;SDS011;12883;52.662;5.196;2022-12-05T11:35:45;10.97;;;10.87;;
24787;SDS011;12883;52.662;5.196;2022-12-05T11:38:11;10.73;;;10.73;;
24787;SDS011;12883;52.662;5.196;2022-12-05T11:54:23;10.03;;;10.03;;
24787;SDS011;12883;52.662;5.196;2022-12-05T12:00:11;9.37;;;9.37;;
24787;SDS011;12883;52.662;5.196;2022-12-05T12:05:41;10.57;;;10.47;;
24787;SDS011;12883;52.662;5.196;2022-12-05T12:08:23;9.73;;;9.73;;
24787;SDS011;12883;52.662;5.196;2022-12-05T12:19:08;9.70;;;9.70;;
24787;SDS011;12883;52.662;5.196;2022-12-05T12:30:05;10.20;;;10.20;;
24787;SDS011;12883;52.662;5.196;2022-12-05T12:46:58;10.37;;;10.33;;
24787;SDS011;12883;52.662;5.196;2022-12-05T12:52:14;10.50;;;10.50;;
24787;SDS011;12883;52.662;5.196;2022-12-05T12:57:53;10.40;;;10.30;;
24787;SDS011;12883;52.662;5.196;2022-12-05T13:05:38;11.03;;;10.93;;
24787;SDS011;12883;52.662;5.196;2022-12-05T13:10:46;10.33;;;10.33;;
24787;SDS011;12883;52.662;5.196;2022-12-05T13:13:15;10.13;;;10.13;;
24787;SDS011;12883;52.662;5.196;2022-12-05T13:15:45;9.80;;;9.70;;
24787;SDS011;12883;52.662;5.196;2022-12-05T13:18:19;8.97;;;8.97;;
24787;SDS011;12883;52.662;5.196;2022-12-05T13:20:47;9.90;;;9.80;;
24787;SDS011;12883;52.662;5.196;2022-12-05T13:23:17;9.93;;;9.93;;
24787;SDS011;12883;52.662;5.196;2022-12-05T13:25:45;10.00;;;9.90;;
24787;SDS011;12883;52.662;5.196;2022-12-05T13:28:31;9.23;;;9.23;;
24787;SDS011;12883;52.662;5.196;2022-12-05T13:31:06;9.47;;;9.47;;
24787;SDS011;12883;52.662;5.196;2022-12-05T13:36:09;9.03;;;9.03;;
24787;SDS011;12883;52.662;5.196;2022-12-05T13:38:56;9.57;;;9.53;;
24787;SDS011;12883;52.662;5.196;2022-12-05T13:41:43;10.37;;;10.37;;
24787;SDS011;12883;52.662;5.196;2022-12-05T13:44:31;8.03;;;8.03;;
24787;SDS011;12883;52.662;5.196;2022-12-05T13:47:02;8.47;;;8.47;;
24787;SDS011;12883;52.662;5.196;2022-12-05T13:49:34;8.40;;;8.40;;
24787;SDS011;12883;52.662;5.196;2022-12-05T13:52:09;8.20;;;8.20;;
24787;SDS011;12883;52.662;5.196;2022-12-05T13:54:42;7.70;;;7.70;;
24787;SDS011;12883;52.662;5.196;2022-12-05T14:10:10;7.70;;;7.70;;
24787;SDS011;12883;52.662;5.196;2022-12-05T14:12:50;7.20;;;7.20;;
24787;SDS011;12883;52.662;5.196;2022-12-05T14:21:07;7.40;;;7.37;;
24787;SDS011;12883;52.662;5.196;2022-12-05T14:31:58;7.17;;;7.17;;
24787;SDS011;12883;52.662;5.196;2022-12-05T14:34:25;6.47;;;6.47;;
24787;SDS011;12883;52.662;5.196;2022-12-05T14:37:00;6.53;;;6.53;;
24787;SDS011;12883;52.662;5.196;2022-12-05T14:39:30;7.00;;;7.00;;
24787;SDS011;12883;52.662;5.196;2022-12-05T14:41:58;6.93;;;6.93;;
24787;SDS011;12883;52.662;5.196;2022-12-05T14:44:25;6.87;;;6.87;;
24787;SDS011;12883;52.662;5.196;2022-12-05T14:46:56;7.60;;;7.60;;
24787;SDS011;12883;52.662;5.196;2022-12-05T14:52:00;6.83;;;6.83;;
24787;SDS011;12883;52.662;5.196;2022-12-05T14:54:35;6.50;;;6.50;;
24787;SDS011;12883;52.662;5.196;2022-12-05T14:57:04;6.93;;;6.93;;
24787;SDS011;12883;52.662;5.196;2022-12-05T14:59:44;7.20;;;7.20;;
24787;SDS011;12883;52.662;5.196;2022-12-05T15:02:18;7.13;;;7.13;;
24787;SDS011;12883;52.662;5.196;2022-12-05T15:04:50;6.97;;;6.97;;
24787;SDS011;12883;52.662;5.196;2022-12-05T15:07:21;6.87;;;6.87;;
24787;SDS011;12883;52.662;5.196;2022-12-05T15:09:58;6.70;;;6.70;;
24787;SDS011;12883;52.662;5.196;2022-12-05T15:12:31;7.27;;;7.27;;
24787;SDS011;12883;52.662;5.196;2022-12-05T15:15:06;7.00;;;7.00;;
24787;SDS011;12883;52.662;5.196;2022-12-05T15:17:51;6.67;;;6.67;;
24787;SDS011;12883;52.662;5.196;2022-12-05T15:31:45;7.47;;;7.47;;
24787;SDS011;12883;52.662;5.196;2022-12-05T15:36:39;6.70;;;6.70;;
24787;SDS011;12883;52.662;5.196;2022-12-05T15:42:20;6.47;;;6.47;;
24787;SDS011;12883;52.662;5.196;2022-12-05T15:44:47;7.13;;;7.13;;
24787;SDS011;12883;52.662;5.196;2022-12-05T15:47:22;6.33;;;6.33;;
24787;SDS011;12883;52.662;5.196;2022-12-05T15:49:49;5.93;;;5.93;;
24787;SDS011;12883;52.662;5.196;2022-12-05T15:55:10;6.77;;;6.77;;
24787;SDS011;12883;52.662;5.196;2022-12-05T15:57:40;6.03;;;6.03;;
24787;SDS011;12883;52.662;5.196;2022-12-05T16:00:14;7.00;;;7.00;;
24787;SDS011;12883;52.662;5.196;2022-12-05T16:05:24;6.87;;;6.87;;
24787;SDS011;12883;52.662;5.196;2022-12-05T16:07:54;6.17;;;6.17;;
24787;SDS011;12883;52.662;5.196;2022-12-05T16:10:19;7.47;;;7.47;;
24787;SDS011;12883;52.662;5.196;2022-12-05T16:12:46;7.27;;;7.27;;
24787;SDS011;12883;52.662;5.196;2022-12-05T16:15:23;7.00;;;7.00;;
24787;SDS011;12883;52.662;5.196;2022-12-05T16:17:53;6.47;;;6.47;;
24787;SDS011;12883;52.662;5.196;2022-12-05T16:20:21;6.17;;;6.17;;
24787;SDS011;12883;52.662;5.196;2022-12-05T16:22:50;5.80;;;5.80;;
24787;SDS011;12883;52.662;5.196;2022-12-05T16:25:27;6.10;;;6.10;;
24787;SDS011;12883;52.662;5.196;2022-12-05T16:27:54;5.77;;;5.77;;
24787;SDS011;12883;52.662;5.196;2022-12-05T16:30:32;6.73;;;6.73;;
24787;SDS011;12883;52.662;5.196;2022-12-05T16:33:32;5.90;;;5.90;;
24787;SDS011;12883;52.662;5.196;2022-12-05T16:35:51;5.93;;;5.93;;
24787;SDS011;12883;52.662;5.196;2022-12-05T16:45:47;6.00;;;6.00;;
24787;SDS011;12883;52.662;5.196;2022-12-05T16:48:14;6.47;;;6.47;;
24787;SDS011;12883;52.662;5.196;2022-12-05T16:50:42;6.27;;;6.27;;
24787;SDS011;12883;52.662;5.196;2022-12-05T16:55:37;5.53;;;5.53;;
24787;SDS011;12883;52.662;5.196;2022-12-05T16:58:03;5.97;;;5.97;;
24787;SDS011;12883;52.662;5.196;2022-12-05T17:00:29;5.73;;;5.73;;
24787;SDS011;12883;52.662;5.196;2022-12-05T17:02:55;6.77;;;6.77;;
24787;SDS011;12883;52.662;5.196;2022-12-05T17:05:22;6.47;;;6.47;;
24787;SDS011;12883;52.662;5.196;2022-12-05T17:07:47;6.50;;;6.50;;
24787;SDS011;12883;52.662;5.196;2022-12-05T17:10:13;6.27;;;6.27;;
24787;SDS011;12883;52.662;5.196;2022-12-05T17:12:39;6.37;;;6.37;;
24787;SDS011;12883;52.662;5.196;2022-12-05T17:15:08;7.07;;;7.07;;
24787;SDS011;12883;52.662;5.196;2022-12-05T17:17:40;6.57;;;6.57;;
24787;SDS011;12883;52.662;5.196;2022-12-05T17:20:05;6.90;;;6.90;;
24787;SDS011;12883;52.662;5.196;2022-12-05T17:22:31;7.13;;;7.13;;
24787;SDS011;12883;52.662;5.196;2022-12-05T17:24:56;6.57;;;6.57;;
24787;SDS011;12883;52.662;5.196;2022-12-05T17:27:23;7.73;;;7.73;;
24787;SDS011;12883;52.662;5.196;2022-12-05T17:29:48;7.07;;;7.07;;
24787;SDS011;12883;52.662;5.196;2022-12-05T17:32:14;7.63;;;7.63;;
24787;SDS011;12883;52.662;5.196;2022-12-05T17:34:39;7.20;;;7.20;;
24787;SDS011;12883;52.662;5.196;2022-12-05T17:37:05;7.13;;;7.13;;
24787;SDS011;12883;52.662;5.196;2022-12-05T17:39:30;6.70;;;6.70;;
24787;SDS011;12883;52.662;5.196;2022-12-05T17:41:55;6.53;;;6.53;;
24787;SDS011;12883;52.662;5.196;2022-12-05T17:44:21;6.70;;;6.70;;
24787;SDS011;12883;52.662;5.196;2022-12-05T17:46:46;6.37;;;6.37;;
24787;SDS011;12883;52.662;5.196;2022-12-05T17:49:12;5.97;;;5.97;;
24787;SDS011;12883;52.662;5.196;2022-12-05T17:51:39;6.47;;;6.47;;
24787;SDS011;12883;52.662;5.196;2022-12-05T17:54:05;6.67;;;6.67;;
24787;SDS011;12883;52.662;5.196;2022-12-05T17:56:31;6.63;;;6.63;;
24787;SDS011;12883;52.662;5.196;2022-12-05T17:58:56;6.23;;;6.23;;
24787;SDS011;12883;52.662;5.196;2022-12-05T18:01:22;6.93;;;6.93;;
24787;SDS011;12883;52.662;5.196;2022-12-05T18:03:47;7.23;;;7.23;;
24787;SDS011;12883;52.662;5.196;2022-12-05T18:06:13;6.23;;;6.23;;